Airport View

Enter AWOS ICAO identifier for current METAR.

ex. KFNL

KI75 170935Z AUTO 18007KT 10SM CLR 05/00 A2994 RMK AO2 T00520002

17 Nov 2019 09:43

Frequency: 120.975

Phone: 641-342-1422

Other Area AWOS: KCNC - KLWD - KDSM - KOXV

TAF KDSM 170531Z 1706/1806 14009KT P6SM BKN140 OVC250 FM170900 20006KT P6SM VCSH OVC100 FM171300 30009G15KT P6SM OVC022 FM171800 33010KT P6SM BKN025 FM180300 30004KT P6SM BKN035